Time;durP1;ratioP1;P1;durP2;ratioP2;P2;SDS_P1;SDS_P2;PMS_P1;PMS_P2;Temp;Humidity;BMP_temperature;BMP_pressure;BME280_temperature;BME280_humidity;BME280_pressure;Samples;Min_cycle;Max_cycle;Signal;HPM_P1;HPM_P2
2020/12/18 00:00:26;;;;;;;12.93;7.67;;;6.10;99.90;;;;;;5073639;28;20213;-61
2020/12/18 00:02:53;;;;;;;13.20;7.50;;;6.00;99.90;;;;;;5073605;28;20267;-61
2020/12/18 00:05:19;;;;;;;10.77;8.50;;;5.90;99.90;;;;;;5072955;28;20288;-61
2020/12/18 00:07:45;;;;;;;9.93;7.97;;;5.80;99.90;;;;;;5073170;28;20212;-59
2020/12/18 00:10:11;;;;;;;11.67;7.97;;;5.90;99.90;;;;;;5073368;28;20266;-59
2020/12/18 00:12:37;;;;;;;11.50;8.30;;;5.80;99.90;;;;;;5072939;28;20209;-59
2020/12/18 00:15:04;;;;;;;10.23;7.60;;;5.70;99.90;;;;;;5072954;28;20224;-58
2020/12/18 00:17:31;;;;;;;10.97;8.30;;;5.60;99.90;;;;;;5073056;28;20212;-59
2020/12/18 00:19:57;;;;;;;11.80;7.70;;;5.60;99.90;;;;;;5073187;28;20254;-59
2020/12/18 00:22:24;;;;;;;9.50;7.43;;;5.60;99.90;;;;;;5073638;28;20787;-59
2020/12/18 00:24:50;;;;;;;9.60;7.17;;;5.60;99.90;;;;;;5072564;28;20229;-59
2020/12/18 00:27:16;;;;;;;11.80;7.47;;;5.50;99.90;;;;;;5072873;28;20213;-60
2020/12/18 00:29:43;;;;;;;8.67;7.07;;;5.50;99.90;;;;;;5072490;28;20251;-59
2020/12/18 00:32:09;;;;;;;8.67;7.10;;;5.50;99.90;;;;;;5072852;28;20209;-59
2020/12/18 00:34:36;;;;;;;8.13;6.63;;;5.40;99.90;;;;;;5071608;28;20216;-59
2020/12/18 00:37:02;;;;;;;9.33;7.67;;;5.40;99.90;;;;;;5072962;28;20212;-60
2020/12/18 00:39:28;;;;;;;11.43;8.83;;;5.40;99.90;;;;;;5072178;28;20205;-59
2020/12/18 00:41:55;;;;;;;9.23;7.80;;;5.40;99.90;;;;;;5072247;28;20231;-59
2020/12/18 00:44:23;;;;;;;16.37;10.17;;;5.40;99.90;;;;;;5072291;28;20225;-59
2020/12/18 00:46:49;;;;;;;17.13;11.67;;;5.40;99.90;;;;;;5072297;28;20216;-59
2020/12/18 00:49:15;;;;;;;30.53;20.90;;;5.40;99.90;;;;;;5072099;28;20315;-59
2020/12/18 00:51:42;;;;;;;16.63;10.63;;;5.40;99.90;;;;;;5072523;28;20216;-60
2020/12/18 00:54:08;;;;;;;10.07;7.23;;;5.40;99.90;;;;;;5071853;28;20258;-59
2020/12/18 00:56:35;;;;;;;10.77;7.60;;;5.40;99.90;;;;;;5072098;28;20213;-59
2020/12/18 00:59:01;;;;;;;12.17;9.53;;;5.40;99.90;;;;;;5072034;28;20201;-59
2020/12/18 01:01:27;;;;;;;8.40;7.07;;;5.40;99.90;;;;;;5072170;28;20672;-59
2020/12/18 01:03:53;;;;;;;14.33;9.20;;;5.50;99.90;;;;;;5071788;28;20217;-59
2020/12/18 01:06:19;;;;;;;12.00;8.67;;;5.40;99.90;;;;;;5071809;28;20233;-59
2020/12/18 01:08:46;;;;;;;11.37;8.20;;;5.40;99.90;;;;;;5071577;28;20205;-59
2020/12/18 01:11:12;;;;;;;12.10;8.17;;;5.40;99.90;;;;;;5072107;28;20215;-58
2020/12/18 01:13:39;;;;;;;17.87;9.40;;;5.40;99.90;;;;;;5071742;28;20197;-59
2020/12/18 01:16:09;;;;;;;15.70;10.63;;;5.30;99.90;;;;;;5071774;28;20700;-59
2020/12/18 01:18:35;;;;;;;12.90;8.57;;;5.40;99.90;;;;;;5071834;28;20590;-59
2020/12/18 01:21:02;;;;;;;10.47;7.80;;;5.40;99.90;;;;;;5071818;28;20205;-59
2020/12/18 01:23:28;;;;;;;17.43;10.43;;;5.40;99.90;;;;;;5071168;28;20221;-59
2020/12/18 01:25:55;;;;;;;13.03;9.53;;;5.40;99.90;;;;;;5071761;28;20229;-59
2020/12/18 01:28:22;;;;;;;12.57;8.27;;;5.30;99.90;;;;;;5071428;28;20212;-60
2020/12/18 01:30:48;;;;;;;12.27;9.93;;;5.40;99.90;;;;;;5070937;28;20772;-61
2020/12/18 01:33:14;;;;;;;13.13;8.70;;;5.40;99.90;;;;;;5071907;28;20452;-65
2020/12/18 01:35:41;;;;;;;11.37;7.30;;;5.50;99.90;;;;;;5071330;28;20231;-63
2020/12/18 01:38:07;;;;;;;9.43;7.23;;;5.50;99.90;;;;;;5071452;28;20263;-63
2020/12/18 01:40:33;;;;;;;10.17;7.30;;;5.50;99.90;;;;;;5071601;28;20212;-63
2020/12/18 01:43:01;;;;;;;9.03;6.83;;;5.50;99.90;;;;;;5071763;28;20212;-64
2020/12/18 01:45:28;;;;;;;9.30;6.67;;;5.50;99.90;;;;;;5071154;28;20221;-63
2020/12/18 01:47:54;;;;;;;7.73;6.67;;;5.40;99.90;;;;;;5071138;28;20220;-63
2020/12/18 01:50:21;;;;;;;8.53;6.60;;;5.40;99.90;;;;;;5071148;28;20201;-63
2020/12/18 01:52:47;;;;;;;10.23;6.43;;;5.50;99.90;;;;;;5071216;28;20212;-63
2020/12/18 01:55:13;;;;;;;9.07;6.23;;;5.60;99.90;;;;;;5070944;28;20279;-64
2020/12/18 01:57:41;;;;;;;11.43;6.97;;;5.60;99.90;;;;;;5071085;28;20208;-63
2020/12/18 02:00:09;;;;;;;9.10;6.47;;;5.70;99.90;;;;;;5071380;28;20210;-63
2020/12/18 02:02:36;;;;;;;10.70;6.90;;;5.70;99.90;;;;;;5071053;28;20211;-63
2020/12/18 02:05:02;;;;;;;9.33;6.47;;;5.70;99.90;;;;;;5070344;28;20730;-63
2020/12/18 02:07:29;;;;;;;7.43;6.60;;;5.70;99.90;;;;;;5071321;28;20205;-63
2020/12/18 02:09:55;;;;;;;8.90;6.90;;;5.60;99.90;;;;;;5070732;28;20607;-63
2020/12/18 02:12:22;;;;;;;10.10;6.37;;;5.60;99.90;;;;;;5071023;28;20672;-63
2020/12/18 02:14:49;;;;;;;9.53;6.17;;;5.50;99.90;;;;;;5070833;28;20217;-63
2020/12/18 02:17:17;;;;;;;9.37;6.53;;;5.40;99.90;;;;;;5071071;28;20413;-62
2020/12/18 02:19:44;;;;;;;7.10;6.30;;;5.30;99.90;;;;;;5070568;28;20216;-62
2020/12/18 02:22:12;;;;;;;9.77;7.03;;;5.30;99.90;;;;;;5071394;28;20211;-62
2020/12/18 02:24:40;;;;;;;9.10;6.50;;;5.10;99.90;;;;;;5070411;28;20627;-63
2020/12/18 02:27:09;;;;;;;13.10;7.23;;;5.00;99.90;;;;;;5071043;28;20209;-63
2020/12/18 02:29:35;;;;;;;10.80;7.57;;;5.00;99.90;;;;;;5070655;28;20208;-62
2020/12/18 02:32:02;;;;;;;9.47;7.40;;;4.90;99.90;;;;;;5071343;28;20672;-62
2020/12/18 02:34:29;;;;;;;10.33;7.27;;;4.80;99.90;;;;;;5070981;28;20593;-62
2020/12/18 02:36:55;;;;;;;10.40;6.90;;;4.80;99.90;;;;;;5071375;28;20209;-62
2020/12/18 02:39:21;;;;;;;12.63;6.73;;;4.80;99.90;;;;;;5071798;28;20272;-63
2020/12/18 02:41:47;;;;;;;7.80;6.70;;;4.70;99.90;;;;;;5072876;28;20209;-62
2020/12/18 02:44:14;;;;;;;8.73;6.30;;;4.70;99.90;;;;;;5072575;28;20225;-62
2020/12/18 02:46:41;;;;;;;6.47;5.87;;;4.60;99.90;;;;;;5072287;28;20200;-63
2020/12/18 02:49:07;;;;;;;6.23;5.47;;;4.50;99.90;;;;;;5071802;28;20209;-64
2020/12/18 02:51:33;;;;;;;6.00;5.40;;;4.40;99.90;;;;;;5071763;28;20603;-63
2020/12/18 02:53:59;;;;;;;6.60;5.50;;;4.30;99.90;;;;;;5070657;28;20209;-63
2020/12/18 02:56:27;;;;;;;6.37;5.67;;;4.20;99.90;;;;;;5070928;28;20229;-63
2020/12/18 02:58:53;;;;;;;5.87;5.27;;;4.10;99.90;;;;;;5074036;28;20204;-63
2020/12/18 03:01:21;;;;;;;6.03;5.43;;;4.10;99.90;;;;;;5074525;28;20212;-63
2020/12/18 03:03:47;;;;;;;5.47;4.97;;;4.20;99.90;;;;;;5074724;28;20228;-63
2020/12/18 03:06:14;;;;;;;6.43;5.73;;;4.30;99.90;;;;;;5076829;28;20248;-64
2020/12/18 03:08:40;;;;;;;7.60;6.23;;;4.40;99.90;;;;;;5075710;28;20232;-63
2020/12/18 03:11:07;;;;;;;6.77;5.60;;;4.50;99.90;;;;;;5074870;28;20212;-63
2020/12/18 03:13:33;;;;;;;8.40;6.67;;;4.50;99.90;;;;;;5074214;28;20205;-63
2020/12/18 03:15:59;;;;;;;7.27;6.47;;;4.60;99.90;;;;;;5074611;28;20280;-63
2020/12/18 03:18:26;;;;;;;10.07;6.97;;;4.60;99.90;;;;;;5074631;28;20212;-64
2020/12/18 03:20:52;;;;;;;9.83;6.90;;;4.70;99.90;;;;;;5075412;28;20220;-66
2020/12/18 03:23:19;;;;;;;10.77;6.67;;;4.70;99.90;;;;;;5075020;28;20691;-64
2020/12/18 03:25:45;;;;;;;8.00;6.30;;;4.70;99.90;;;;;;5074939;28;20701;-64
2020/12/18 03:28:11;;;;;;;8.23;6.20;;;4.70;99.90;;;;;;5075298;28;20205;-63
2020/12/18 03:30:37;;;;;;;8.10;6.10;;;4.50;99.90;;;;;;5075255;28;20586;-63
2020/12/18 03:33:03;;;;;;;8.63;6.27;;;4.40;99.90;;;;;;5075300;28;20209;-64
2020/12/18 03:35:31;;;;;;;6.63;5.93;;;4.30;99.90;;;;;;5074645;28;20224;-63
2020/12/18 03:37:57;;;;;;;6.30;5.70;;;4.40;99.90;;;;;;5074619;28;20217;-63
2020/12/18 03:40:23;;;;;;;5.87;5.23;;;4.60;99.90;;;;;;5074998;28;20205;-63
2020/12/18 03:42:49;;;;;;;6.33;5.73;;;4.80;99.90;;;;;;5075016;28;20216;-63
2020/12/18 03:45:16;;;;;;;6.53;5.90;;;5.00;99.90;;;;;;5073839;28;20228;-63
2020/12/18 03:47:42;;;;;;;5.83;5.23;;;5.10;99.90;;;;;;5074046;28;20201;-63
2020/12/18 03:50:08;;;;;;;7.13;5.50;;;5.30;99.90;;;;;;5074634;28;20205;-66
2020/12/18 03:52:35;;;;;;;8.10;5.47;;;5.50;99.90;;;;;;5075231;28;20235;-64
2020/12/18 03:55:01;;;;;;;8.17;5.70;;;5.60;99.90;;;;;;5075107;28;20277;-64
2020/12/18 03:57:27;;;;;;;6.03;5.40;;;5.80;99.90;;;;;;5074992;28;20209;-65
2020/12/18 03:59:53;;;;;;;5.67;5.17;;;5.90;99.90;;;;;;5075209;28;20215;-63
2020/12/18 04:02:20;;;;;;;5.97;5.20;;;6.10;99.90;;;;;;5075352;28;20205;-64
2020/12/18 04:04:46;;;;;;;6.60;5.90;;;6.20;99.90;;;;;;5074703;28;20645;-64
2020/12/18 04:07:13;;;;;;;8.17;6.23;;;6.20;99.90;;;;;;5074606;28;20216;-64
2020/12/18 04:09:40;;;;;;;7.00;5.93;;;6.30;99.90;;;;;;5073212;28;20240;-64
2020/12/18 04:12:07;;;;;;;7.63;5.60;;;6.40;99.90;;;;;;5074393;28;20262;-64
2020/12/18 04:14:33;;;;;;;6.37;5.60;;;6.50;99.90;;;;;;5074065;28;20247;-63
2020/12/18 04:17:01;;;;;;;6.53;5.30;;;6.60;99.90;;;;;;5073429;28;20593;-64
2020/12/18 04:19:27;;;;;;;8.23;6.03;;;6.70;99.90;;;;;;5073331;28;20620;-64
2020/12/18 04:21:53;;;;;;;7.67;6.37;;;6.70;99.90;;;;;;5073435;28;20212;-63
2020/12/18 04:24:20;;;;;;;8.53;6.67;;;6.60;99.90;;;;;;5073131;28;20228;-64
2020/12/18 04:26:47;;;;;;;7.63;6.07;;;6.40;99.90;;;;;;5073118;28;20620;-63
2020/12/18 04:29:13;;;;;;;6.97;6.20;;;6.30;99.90;;;;;;5073410;28;20303;-64
2020/12/18 04:31:39;;;;;;;7.43;5.93;;;6.30;99.90;;;;;;5073331;28;20209;-64
2020/12/18 04:34:05;;;;;;;8.50;6.53;;;6.20;99.90;;;;;;5073546;28;20201;-64
2020/12/18 04:36:32;;;;;;;6.70;5.97;;;6.10;99.90;;;;;;5073439;28;20228;-64
2020/12/18 04:38:58;;;;;;;6.57;5.87;;;6.10;99.90;;;;;;5073089;28;20664;-65
2020/12/18 04:41:24;;;;;;;8.33;6.47;;;6.10;99.90;;;;;;5073007;28;20205;-65
2020/12/18 04:43:53;;;;;;;7.80;5.90;;;6.10;99.90;;;;;;5072778;28;20216;-64
2020/12/18 04:46:22;;;;;;;7.40;5.93;;;6.00;99.90;;;;;;5073370;28;20224;-64
2020/12/18 04:48:49;;;;;;;6.03;5.43;;;6.00;99.90;;;;;;5072893;28;20644;-64
2020/12/18 04:51:18;;;;;;;6.83;5.50;;;6.00;99.90;;;;;;5073131;28;20664;-64
2020/12/18 04:53:48;;;;;;;5.90;5.27;;;5.90;99.90;;;;;;5072703;28;20201;-64
2020/12/18 04:56:20;;;;;;;5.73;5.13;;;5.80;99.90;;;;;;5073160;28;20317;-64
2020/12/18 04:58:49;;;;;;;5.57;5.07;;;5.70;99.90;;;;;;5072513;28;20208;-65
2020/12/18 05:01:19;;;;;;;6.60;5.43;;;5.70;99.90;;;;;;5072588;28;20201;-64
2020/12/18 05:03:46;;;;;;;6.53;5.33;;;5.60;99.90;;;;;;5072349;28;20256;-64
2020/12/18 05:06:12;;;;;;;5.77;5.10;;;5.50;99.90;;;;;;5072447;28;20228;-64
2020/12/18 05:08:38;;;;;;;5.77;5.00;;;5.40;99.90;;;;;;5072236;28;20209;-64
2020/12/18 05:11:21;;;;;;;6.30;4.93;;;5.20;99.90;;;;;;5072375;28;20255;-65
2020/12/18 05:13:50;;;;;;;5.77;5.17;;;5.10;99.90;;;;;;5071878;28;20274;-65
2020/12/18 05:16:18;;;;;;;5.87;4.97;;;5.00;99.90;;;;;;5072441;28;20232;-65
2020/12/18 05:18:45;;;;;;;5.93;5.17;;;4.90;99.90;;;;;;5071865;28;20577;-64
2020/12/18 05:21:12;;;;;;;6.53;5.00;;;4.80;99.90;;;;;;5071916;28;20306;-64
2020/12/18 05:23:39;;;;;;;6.43;5.00;;;4.70;99.90;;;;;;5072084;28;20216;-65
2020/12/18 05:26:07;;;;;;;6.33;5.10;;;4.70;99.90;;;;;;5072114;28;20623;-64
2020/12/18 05:28:40;;;;;;;7.43;5.77;;;4.70;99.90;;;;;;5072560;28;20204;-65
2020/12/18 05:31:11;;;;;;;6.93;5.60;;;4.80;99.90;;;;;;5073229;28;20228;-64
2020/12/18 05:33:39;;;;;;;6.50;5.73;;;4.80;99.90;;;;;;5072688;28;20270;-64
2020/12/18 05:36:05;;;;;;;6.57;5.87;;;4.80;99.90;;;;;;5072102;28;20229;-65
2020/12/18 05:38:34;;;;;;;6.83;5.57;;;4.80;99.90;;;;;;5072437;28;20209;-64
2020/12/18 05:41:00;;;;;;;7.00;6.00;;;4.90;99.90;;;;;;5072093;28;20676;-64
2020/12/18 05:43:34;;;;;;;6.67;5.40;;;4.90;99.90;;;;;;5071759;28;20688;-65
2020/12/18 05:46:16;;;;;;;7.50;6.30;;;4.90;99.90;;;;;;5072012;28;20233;-65
2020/12/18 05:48:43;;;;;;;8.57;5.90;;;4.80;99.90;;;;;;5071697;28;20699;-64
2020/12/18 05:51:10;;;;;;;7.33;6.47;;;4.70;99.90;;;;;;5071905;28;20215;-64
2020/12/18 05:53:36;;;;;;;8.20;5.90;;;4.70;99.90;;;;;;5071806;28;20299;-64
2020/12/18 05:56:02;;;;;;;7.23;5.63;;;4.70;99.90;;;;;;5071706;28;20278;-64
2020/12/18 05:58:29;;;;;;;7.03;5.63;;;4.50;99.90;;;;;;5071546;28;20204;-64
2020/12/18 06:01:00;;;;;;;7.43;5.57;;;4.50;99.90;;;;;;5071954;28;20220;-64
2020/12/18 06:03:35;;;;;;;8.60;6.60;;;4.40;99.90;;;;;;5071898;28;20215;-63
2020/12/18 06:06:10;;;;;;;6.93;5.73;;;4.30;99.90;;;;;;5071525;28;20239;-65
2020/12/18 06:08:40;;;;;;;6.63;5.93;;;4.20;99.90;;;;;;5071353;28;20211;-63
2020/12/18 06:11:10;;;;;;;9.73;7.10;;;4.20;99.90;;;;;;5071691;28;20209;-64
2020/12/18 06:13:37;;;;;;;8.90;5.83;;;4.20;99.90;;;;;;5071337;28;20258;-65
2020/12/18 06:16:05;;;;;;;9.07;6.73;;;4.20;99.90;;;;;;5071396;28;20247;-64
2020/12/18 06:18:38;;;;;;;10.53;6.23;;;4.40;99.90;;;;;;5071195;28;20208;-63
2020/12/18 06:21:12;;;;;;;8.13;5.67;;;4.50;99.90;;;;;;5071203;28;20235;-66
2020/12/18 06:23:39;;;;;;;8.57;6.17;;;4.70;99.90;;;;;;5070887;28;20320;-65
2020/12/18 06:26:06;;;;;;;11.50;8.30;;;4.80;99.90;;;;;;5071477;28;20221;-66
2020/12/18 06:28:32;;;;;;;6.53;5.50;;;4.90;99.90;;;;;;5070978;28;20586;-65
2020/12/18 06:31:13;;;;;;;7.17;5.53;;;5.00;99.90;;;;;;5071203;28;20200;-63
2020/12/18 06:33:53;;;;;;;8.50;6.17;;;5.10;99.90;;;;;;5070265;28;20200;-63
2020/12/18 06:36:59;;;;;;;11.00;7.53;;;5.20;99.90;;;;;;5071309;28;20225;-66
2020/12/18 06:39:28;;;;;;;7.20;5.53;;;5.30;99.90;;;;;;5071186;28;20748;-65
2020/12/18 06:42:25;;;;;;;7.37;5.40;;;5.40;99.90;;;;;;5071487;28;20208;-63
2020/12/18 06:44:53;;;;;;;8.20;5.30;;;5.50;99.90;;;;;;4969813;28;20233;-65
2020/12/18 06:47:27;;;;;;;8.87;5.87;;;5.60;99.90;;;;;;5048787;28;20205;-65
2020/12/18 06:50:06;;;;;;;8.37;6.17;;;5.60;99.90;;;;;;5071804;28;20205;-65
2020/12/18 06:52:48;;;;;;;9.27;6.43;;;5.60;99.90;;;;;;5072900;28;20232;-66
2020/12/18 06:55:16;;;;;;;9.50;6.87;;;5.40;99.90;;;;;;5074998;28;20228;-63
2020/12/18 06:57:43;;;;;;;7.67;6.20;;;5.30;99.90;;;;;;5072815;28;20208;-62
2020/12/18 07:00:31;;;;;;;9.47;7.00;;;5.30;99.90;;;;;;5070976;28;20205;-62
2020/12/18 07:02:58;;;;;;;11.77;8.70;;;5.20;99.90;;;;;;5070751;28;20212;-63
2020/12/18 07:05:35;;;;;;;11.13;8.77;;;5.10;99.90;;;;;;5070612;28;20229;-63
2020/12/18 07:08:05;;;;;;;10.40;7.43;;;4.90;99.90;;;;;;5070588;28;20201;-63
2020/12/18 07:10:36;;;;;;;9.43;7.50;;;4.80;99.90;;;;;;5070718;28;20205;-62
2020/12/18 07:13:02;;;;;;;11.40;8.03;;;4.80;99.90;;;;;;5070194;28;20209;-63
2020/12/18 07:15:43;;;;;;;10.77;8.57;;;4.80;99.90;;;;;;5070806;28;20221;-63
2020/12/18 07:18:13;;;;;;;11.90;9.53;;;4.90;99.90;;;;;;5070437;28;20209;-65
2020/12/18 07:20:45;;;;;;;11.53;8.93;;;5.00;99.90;;;;;;5070753;28;20571;-64
2020/12/18 07:23:12;;;;;;;11.10;9.20;;;5.20;99.90;;;;;;5071332;28;20233;-65
2020/12/18 07:25:38;;;;;;;20.27;14.63;;;5.30;99.90;;;;;;5070442;28;20233;-64
2020/12/18 07:28:05;;;;;;;12.83;10.30;;;5.30;99.90;;;;;;5071143;28;20592;-65
2020/12/18 07:30:31;;;;;;;14.77;11.43;;;5.30;99.90;;;;;;5071349;28;20277;-64
2020/12/18 07:32:58;;;;;;;15.23;11.43;;;5.40;99.90;;;;;;5070813;28;20205;-64
2020/12/18 07:35:24;;;;;;;13.93;9.47;;;5.50;99.90;;;;;;5069789;28;20217;-64
2020/12/18 07:37:50;;;;;;;14.00;10.30;;;5.50;99.90;;;;;;5070249;28;20274;-65
2020/12/18 07:40:18;;;;;;;10.90;9.53;;;5.60;99.90;;;;;;5070335;28;20209;-64
2020/12/18 07:42:44;;;;;;;11.70;9.07;;;5.70;99.90;;;;;;5071550;28;20204;-66
2020/12/18 07:45:10;;;;;;;8.83;7.90;;;5.70;99.90;;;;;;5078846;28;20259;-65
2020/12/18 07:47:38;;;;;;;10.50;8.53;;;5.70;99.90;;;;;;5076718;28;20220;-65
2020/12/18 07:50:06;;;;;;;9.67;7.53;;;5.60;99.90;;;;;;5077473;28;20205;-64
2020/12/18 07:52:34;;;;;;;9.43;8.03;;;5.70;99.90;;;;;;5076242;28;20201;-65
2020/12/18 07:55:00;;;;;;;17.17;11.40;;;5.70;99.90;;;;;;5074862;28;20256;-65
2020/12/18 07:57:27;;;;;;;11.27;9.07;;;5.70;99.90;;;;;;5074811;28;20590;-65
2020/12/18 08:00:07;;;;;;;11.83;9.40;;;5.80;99.90;;;;;;5073742;28;20204;-65
2020/12/18 08:02:34;;;;;;;10.40;9.23;;;5.80;99.90;;;;;;5074448;28;20606;-66
2020/12/18 08:05:01;;;;;;;12.53;9.33;;;5.80;99.90;;;;;;5073785;28;20893;-65
2020/12/18 08:07:29;;;;;;;15.63;10.87;;;5.90;99.90;;;;;;5074869;28;20209;-66
2020/12/18 08:10:00;;;;;;;12.37;9.20;;;6.00;99.90;;;;;;5074512;28;20622;-66
2020/12/18 08:12:31;;;;;;;10.43;8.37;;;6.00;99.90;;;;;;5074793;28;20205;-65
2020/12/18 08:15:10;;;;;;;15.83;9.80;;;6.10;99.90;;;;;;5073856;28;20229;-65
2020/12/18 08:17:36;;;;;;;17.20;8.90;;;6.10;99.90;;;;;;5073370;28;20200;-66
2020/12/18 08:20:04;;;;;;;12.50;9.30;;;6.20;99.90;;;;;;5073511;28;20213;-65
2020/12/18 08:22:35;;;;;;;22.53;12.93;;;6.40;99.90;;;;;;5073817;28;20583;-65
2020/12/18 08:25:03;;;;;;;14.40;10.57;;;6.30;99.90;;;;;;5073077;28;20236;-66
2020/12/18 08:27:36;;;;;;;12.13;9.40;;;6.40;99.90;;;;;;5073241;28;20212;-64
2020/12/18 08:30:05;;;;;;;11.90;8.90;;;6.40;99.90;;;;;;5073061;28;20338;-64
2020/12/18 08:32:32;;;;;;;11.00;8.90;;;6.30;99.90;;;;;;5073002;28;20598;-64
2020/12/18 08:35:00;;;;;;;9.93;8.40;;;6.20;99.90;;;;;;5072750;28;20227;-64
2020/12/18 08:37:27;;;;;;;11.63;8.97;;;6.40;99.90;;;;;;5072799;28;20215;-65
2020/12/18 08:39:53;;;;;;;10.37;9.23;;;6.50;99.90;;;;;;5072376;28;20209;-64
2020/12/18 08:42:19;;;;;;;11.87;9.03;;;6.50;99.90;;;;;;5073125;28;20205;-64
2020/12/18 08:44:47;;;;;;;11.10;9.43;;;6.60;99.90;;;;;;5071999;28;20628;-64
2020/12/18 08:47:22;;;;;;;11.30;9.23;;;6.60;99.90;;;;;;5072520;28;20216;-64
2020/12/18 08:49:49;;;;;;;11.00;9.23;;;6.60;99.90;;;;;;5072633;28;20208;-64
2020/12/18 08:52:21;;;;;;;11.57;9.80;;;6.70;99.90;;;;;;5072924;28;20212;-63
2020/12/18 08:54:47;;;;;;;10.83;9.43;;;6.80;99.90;;;;;;5071581;28;20240;-64
2020/12/18 08:57:19;;;;;;;24.60;10.70;;;7.10;99.90;;;;;;5073245;28;20201;-64
2020/12/18 08:59:57;;;;;;;17.25;9.52;;;7.20;99.90;;;;;;5067915;28;20941;-60
2020/12/18 09:02:23;;;;;;;13.27;8.07;;;7.40;99.90;;;;;;5071694;28;20693;-60
2020/12/18 09:05:08;;;;;;;8.60;7.53;;;7.60;99.90;;;;;;5071447;28;20297;-61
2020/12/18 09:07:42;;;;;;;10.33;7.53;;;7.80;99.90;;;;;;5071679;28;20692;-61
2020/12/18 09:10:09;;;;;;;10.60;7.47;;;8.00;99.90;;;;;;5071582;28;20224;-61
2020/12/18 09:12:39;;;;;;;11.13;7.27;;;8.20;99.90;;;;;;5071891;28;20310;-60
2020/12/18 09:15:23;;;;;;;10.67;7.37;;;8.30;99.90;;;;;;5071311;28;20225;-60
2020/12/18 09:18:04;;;;;;;10.20;7.67;;;8.40;99.90;;;;;;5071410;28;20213;-60
2020/12/18 09:20:33;;;;;;;10.77;7.30;;;8.50;99.90;;;;;;5071469;28;20224;-61
2020/12/18 09:23:02;;;;;;;9.13;7.57;;;8.50;99.90;;;;;;5071551;28;20212;-61
2020/12/18 09:25:28;;;;;;;8.97;7.80;;;8.50;99.90;;;;;;5071341;28;20710;-60
2020/12/18 09:27:56;;;;;;;11.17;8.57;;;8.50;99.90;;;;;;5071641;28;20631;-58
2020/12/18 09:30:25;;;;;;;11.50;8.60;;;8.50;99.90;;;;;;5072585;28;20234;-64
2020/12/18 09:33:11;;;;;;;13.03;9.30;;;8.60;99.90;;;;;;5071903;28;20211;-63
2020/12/18 09:35:37;;;;;;;12.57;8.20;;;8.60;99.90;;;;;;5071070;28;20294;-62
2020/12/18 09:38:04;;;;;;;11.27;8.63;;;8.70;99.90;;;;;;5071646;28;20216;-64
2020/12/18 09:40:31;;;;;;;11.07;8.57;;;8.90;99.90;;;;;;5072116;28;20205;-60
2020/12/18 09:42:57;;;;;;;15.40;11.07;;;9.10;99.90;;;;;;5071761;28;20209;-61
2020/12/18 09:45:24;;;;;;;15.50;11.33;;;9.20;99.90;;;;;;5071491;28;20236;-61
2020/12/18 09:47:50;;;;;;;13.43;9.67;;;9.30;99.90;;;;;;5071859;28;20212;-60
2020/12/18 09:50:16;;;;;;;11.57;9.07;;;9.40;99.90;;;;;;5071695;28;20651;-60
2020/12/18 09:52:42;;;;;;;13.33;9.47;;;9.40;99.90;;;;;;5071350;28;20626;-60
2020/12/18 09:55:09;;;;;;;13.57;9.33;;;9.30;99.90;;;;;;5071363;28;20221;-61
2020/12/18 09:57:35;;;;;;;12.13;8.53;;;9.20;99.90;;;;;;5071631;28;20250;-61
2020/12/18 10:00:03;;;;;;;11.80;9.20;;;9.10;99.90;;;;;;5071258;28;20209;-61
2020/12/18 10:02:30;;;;;;;13.23;9.17;;;9.10;99.90;;;;;;5071620;28;20205;-61
2020/12/18 10:04:56;;;;;;;12.43;8.77;;;9.20;99.90;;;;;;5070770;28;20237;-62
2020/12/18 10:07:23;;;;;;;10.17;8.53;;;9.30;99.90;;;;;;5070328;28;20204;-59
2020/12/18 10:09:49;;;;;;;10.57;8.13;;;9.40;99.90;;;;;;5070988;28;20227;-61
2020/12/18 10:12:15;;;;;;;15.27;10.40;;;9.50;99.90;;;;;;5071255;28;20590;-62
2020/12/18 10:14:41;;;;;;;11.13;8.63;;;9.50;99.90;;;;;;5070792;28;20735;-60
2020/12/18 10:17:08;;;;;;;12.73;9.23;;;9.50;99.90;;;;;;5071224;28;20604;-60
2020/12/18 10:19:35;;;;;;;11.27;8.57;;;9.60;99.90;;;;;;5071205;28;20236;-60
2020/12/18 10:22:01;;;;;;;11.37;9.13;;;9.90;99.90;;;;;;5071250;28;20247;-61
2020/12/18 10:24:27;;;;;;;10.57;8.57;;;10.00;99.90;;;;;;5070841;28;20237;-60
2020/12/18 10:26:53;;;;;;;12.43;9.33;;;10.20;99.90;;;;;;5071015;28;20205;-61
2020/12/18 10:29:20;;;;;;;11.97;8.33;;;10.20;99.90;;;;;;5070699;28;20217;-61
2020/12/18 10:31:46;;;;;;;10.00;8.03;;;10.30;99.90;;;;;;5071668;28;20209;-61
2020/12/18 10:34:12;;;;;;;10.47;8.27;;;10.30;99.90;;;;;;5071313;28;20259;-60
2020/12/18 10:36:39;;;;;;;11.30;8.70;;;10.20;99.90;;;;;;5071600;28;20205;-61
2020/12/18 10:39:06;;;;;;;14.33;9.50;;;10.10;99.90;;;;;;5070801;28;20205;-60
2020/12/18 10:41:32;;;;;;;11.73;8.87;;;10.10;99.90;;;;;;5071051;28;20205;-61
2020/12/18 10:43:59;;;;;;;12.23;9.00;;;10.00;99.90;;;;;;5070554;28;20258;-61
2020/12/18 10:46:26;;;;;;;12.93;9.50;;;10.10;99.90;;;;;;5070921;28;20221;-61
2020/12/18 10:48:52;;;;;;;12.37;8.97;;;10.20;99.90;;;;;;5070459;28;20240;-61
2020/12/18 10:51:18;;;;;;;13.30;9.80;;;10.30;99.90;;;;;;5070683;28;20720;-60
2020/12/18 10:53:45;;;;;;;12.43;9.30;;;10.40;99.90;;;;;;5070305;28;20274;-61
2020/12/18 10:56:11;;;;;;;11.80;9.30;;;10.60;99.90;;;;;;5070731;28;20271;-61
2020/12/18 10:58:37;;;;;;;12.63;9.53;;;10.70;99.90;;;;;;5070458;28;20212;-61
2020/12/18 11:01:03;;;;;;;12.10;9.17;;;10.90;99.90;;;;;;5070546;28;20205;-60
2020/12/18 11:03:30;;;;;;;13.60;10.27;;;10.80;99.90;;;;;;5070425;28;20205;-61
2020/12/18 11:05:56;;;;;;;12.47;8.93;;;10.80;99.90;;;;;;5070342;28;20233;-60
2020/12/18 11:08:22;;;;;;;12.43;9.03;;;10.60;99.90;;;;;;5070276;28;20672;-61
2020/12/18 11:10:49;;;;;;;12.60;8.97;;;10.60;99.90;;;;;;5070164;28;20227;-61
2020/12/18 11:13:15;;;;;;;11.63;8.77;;;10.70;99.90;;;;;;5071069;28;20630;-61
2020/12/18 11:15:43;;;;;;;11.60;9.27;;;10.70;99.90;;;;;;5070773;28;20224;-64
2020/12/18 11:18:09;;;;;;;11.93;8.80;;;10.80;99.90;;;;;;5071059;28;20216;-62
2020/12/18 11:20:35;;;;;;;12.20;9.03;;;11.00;99.90;;;;;;5074076;28;20201;-62
2020/12/18 11:23:01;;;;;;;14.37;9.27;;;10.90;99.90;;;;;;5074228;28;20300;-61
2020/12/18 11:25:28;;;;;;;15.23;10.03;;;10.90;99.90;;;;;;5073641;28;20225;-61
2020/12/18 11:27:55;;;;;;;14.20;10.17;;;11.00;99.90;;;;;;5073852;28;20695;-60
2020/12/18 11:30:21;;;;;;;14.87;9.60;;;11.20;99.90;;;;;;5074167;28;20209;-61
2020/12/18 11:32:47;;;;;;;12.27;9.40;;;11.30;99.90;;;;;;5073741;28;20205;-61
2020/12/18 11:35:13;;;;;;;13.33;9.07;;;11.30;99.90;;;;;;5073390;28;20225;-61
2020/12/18 11:37:39;;;;;;;14.63;10.30;;;11.30;99.90;;;;;;5073647;28;20213;-61
2020/12/18 11:40:06;;;;;;;12.37;9.10;;;11.40;99.90;;;;;;5073697;28;20204;-61
2020/12/18 11:42:32;;;;;;;14.23;8.77;;;11.60;99.90;;;;;;5074121;28;20208;-61
2020/12/18 11:44:59;;;;;;;12.30;8.50;;;11.60;99.90;;;;;;5073834;28;20229;-61
2020/12/18 11:47:27;;;;;;;10.70;8.83;;;11.70;99.90;;;;;;5074272;28;20209;-59
2020/12/18 11:49:53;;;;;;;11.77;8.80;;;11.90;99.90;;;;;;5074753;28;20275;-60
2020/12/18 11:52:19;;;;;;;14.33;11.00;;;12.10;99.90;;;;;;5075312;28;20212;-64
2020/12/18 11:54:45;;;;;;;11.87;8.67;;;12.30;99.90;;;;;;5073875;28;20645;-61
2020/12/18 11:57:12;;;;;;;14.40;8.70;;;12.40;99.90;;;;;;5074228;28;20213;-61
2020/12/18 11:59:38;;;;;;;12.00;8.47;;;12.40;99.90;;;;;;5073718;28;20201;-61
2020/12/18 12:02:07;;;;;;;10.93;8.00;;;12.40;99.90;;;;;;5074181;28;20205;-62
2020/12/18 12:04:33;;;;;;;11.53;7.67;;;12.40;99.90;;;;;;5074581;28;20232;-61
2020/12/18 12:06:59;;;;;;;12.23;8.03;;;12.40;99.90;;;;;;5075010;28;20201;-61
2020/12/18 12:09:26;;;;;;;11.37;8.03;;;12.40;99.90;;;;;;5074789;28;20216;-61
2020/12/18 12:11:52;;;;;;;11.73;8.20;;;12.50;99.90;;;;;;5074855;28;20201;-61
2020/12/18 12:14:18;;;;;;;12.33;7.53;;;12.60;99.90;;;;;;5074663;28;20209;-61
2020/12/18 12:16:45;;;;;;;10.40;7.80;;;12.70;99.90;;;;;;5075221;28;20209;-61
2020/12/18 12:19:12;;;;;;;11.97;8.47;;;12.80;99.90;;;;;;5075529;28;20299;-61
2020/12/18 12:21:39;;;;;;;10.27;7.47;;;13.00;99.90;;;;;;5076079;28;20576;-61
2020/12/18 12:24:06;;;;;;;11.17;7.63;;;13.10;99.90;;;;;;5076242;28;20244;-61
2020/12/18 12:26:32;;;;;;;11.13;7.33;;;13.20;99.90;;;;;;5076155;28;20232;-62
2020/12/18 12:28:58;;;;;;;9.10;7.60;;;13.30;99.90;;;;;;5073808;28;20632;-61
2020/12/18 12:31:25;;;;;;;11.23;8.00;;;13.30;99.90;;;;;;5072549;28;20660;-61
2020/12/18 12:33:51;;;;;;;11.90;7.77;;;13.30;99.90;;;;;;5074151;28;20696;-61
2020/12/18 12:36:19;;;;;;;9.57;6.80;;;13.30;99.90;;;;;;5074621;28;20239;-64
2020/12/18 12:38:46;;;;;;;9.40;7.43;;;13.40;99.90;;;;;;5074110;28;20208;-62
2020/12/18 12:41:13;;;;;;;11.07;7.33;;;13.40;99.90;;;;;;5074552;28;20209;-62
2020/12/18 12:43:39;;;;;;;12.27;7.70;;;13.50;99.90;;;;;;5074331;28;20208;-61
2020/12/18 12:46:06;;;;;;;8.50;6.20;;;13.60;99.90;;;;;;5074291;28;20225;-61
2020/12/18 12:48:32;;;;;;;9.13;7.17;;;13.70;99.90;;;;;;5074010;28;20205;-61
2020/12/18 12:50:58;;;;;;;9.03;7.03;;;13.70;99.90;;;;;;5073258;28;20200;-61